sensor_id;sensor_type;location;lat;lon;timestamp;P1;durP1;ratioP1;P2;durP2;ratioP2
66581;SDS011;53438;48.898;2.308;2023-01-29T00:00:30;26.23;;;11.97;;
66581;SDS011;53438;48.898;2.308;2023-01-29T00:02:56;27.75;;;12.60;;
66581;SDS011;53438;48.898;2.308;2023-01-29T00:05:21;28.60;;;13.93;;
66581;SDS011;53438;48.898;2.308;2023-01-29T00:07:46;27.37;;;13.17;;
66581;SDS011;53438;48.898;2.308;2023-01-29T00:10:12;33.97;;;13.80;;
66581;SDS011;53438;48.898;2.308;2023-01-29T00:12:37;28.92;;;12.23;;
66581;SDS011;53438;48.898;2.308;2023-01-29T00:15:03;28.87;;;12.10;;
66581;SDS011;53438;48.898;2.308;2023-01-29T00:17:29;26.67;;;12.95;;
66581;SDS011;53438;48.898;2.308;2023-01-29T00:19:55;30.57;;;13.27;;
66581;SDS011;53438;48.898;2.308;2023-01-29T00:22:20;34.03;;;15.27;;
66581;SDS011;53438;48.898;2.308;2023-01-29T00:24:46;30.77;;;13.60;;
66581;SDS011;53438;48.898;2.308;2023-01-29T00:27:11;31.33;;;14.15;;
66581;SDS011;53438;48.898;2.308;2023-01-29T00:29:36;33.10;;;14.17;;
66581;SDS011;53438;48.898;2.308;2023-01-29T00:32:02;32.33;;;13.63;;
66581;SDS011;53438;48.898;2.308;2023-01-29T00:34:27;30.60;;;14.53;;
66581;SDS011;53438;48.898;2.308;2023-01-29T00:36:52;31.57;;;14.40;;
66581;SDS011;53438;48.898;2.308;2023-01-29T00:39:29;29.25;;;13.30;;
66581;SDS011;53438;48.898;2.308;2023-01-29T00:42:03;32.05;;;15.30;;
66581;SDS011;53438;48.898;2.308;2023-01-29T00:44:48;38.07;;;16.77;;
66581;SDS011;53438;48.898;2.308;2023-01-29T00:47:24;33.22;;;16.17;;
66581;SDS011;53438;48.898;2.308;2023-01-29T00:49:59;31.98;;;15.20;;
66581;SDS011;53438;48.898;2.308;2023-01-29T00:52:26;35.03;;;15.63;;
66581;SDS011;53438;48.898;2.308;2023-01-29T00:54:56;35.92;;;16.80;;
66581;SDS011;53438;48.898;2.308;2023-01-29T00:57:23;38.70;;;18.53;;
66581;SDS011;53438;48.898;2.308;2023-01-29T00:59:49;39.45;;;17.98;;
66581;SDS011;53438;48.898;2.308;2023-01-29T04:01:13;33.97;;;16.00;;
66581;SDS011;53438;48.898;2.308;2023-01-29T04:03:46;31.45;;;15.57;;
66581;SDS011;53438;48.898;2.308;2023-01-29T04:06:17;35.45;;;17.25;;
66581;SDS011;53438;48.898;2.308;2023-01-29T04:08:47;33.25;;;16.17;;
66581;SDS011;53438;48.898;2.308;2023-01-29T04:11:14;37.43;;;17.90;;
66581;SDS011;53438;48.898;2.308;2023-01-29T04:13:43;29.23;;;14.80;;
66581;SDS011;53438;48.898;2.308;2023-01-29T04:16:11;32.95;;;16.80;;
66581;SDS011;53438;48.898;2.308;2023-01-29T04:18:46;33.72;;;16.08;;
66581;SDS011;53438;48.898;2.308;2023-01-29T04:21:12;31.38;;;16.42;;
66581;SDS011;53438;48.898;2.308;2023-01-29T04:23:38;32.97;;;15.60;;
66581;SDS011;53438;48.898;2.308;2023-01-29T04:29:13;31.97;;;14.97;;
66581;SDS011;53438;48.898;2.308;2023-01-29T04:34:47;31.63;;;15.88;;
66581;SDS011;53438;48.898;2.308;2023-01-29T04:37:38;37.65;;;17.88;;
66581;SDS011;53438;48.898;2.308;2023-01-29T04:54:05;30.33;;;15.02;;
66581;SDS011;53438;48.898;2.308;2023-01-29T04:56:55;33.90;;;16.60;;
66581;SDS011;53438;48.898;2.308;2023-01-29T04:59:34;32.73;;;16.30;;
66581;SDS011;53438;48.898;2.308;2023-01-29T05:02:04;35.50;;;16.73;;
66581;SDS011;53438;48.898;2.308;2023-01-29T05:04:32;37.38;;;17.13;;
66581;SDS011;53438;48.898;2.308;2023-01-29T05:07:06;34.40;;;15.43;;
66581;SDS011;53438;48.898;2.308;2023-01-29T05:09:34;29.10;;;16.00;;
66581;SDS011;53438;48.898;2.308;2023-01-29T05:12:02;33.37;;;16.60;;
66581;SDS011;53438;48.898;2.308;2023-01-29T05:14:29;34.42;;;16.20;;
66581;SDS011;53438;48.898;2.308;2023-01-29T05:16:58;32.92;;;17.20;;
66581;SDS011;53438;48.898;2.308;2023-01-29T05:19:28;35.70;;;17.50;;
66581;SDS011;53438;48.898;2.308;2023-01-29T05:21:53;34.53;;;16.90;;
66581;SDS011;53438;48.898;2.308;2023-01-29T05:24:20;31.42;;;15.32;;
66581;SDS011;53438;48.898;2.308;2023-01-29T05:26:48;33.73;;;16.10;;
66581;SDS011;53438;48.898;2.308;2023-01-29T05:29:33;32.22;;;15.25;;
66581;SDS011;53438;48.898;2.308;2023-01-29T05:31:59;29.75;;;15.50;;
66581;SDS011;53438;48.898;2.308;2023-01-29T05:34:25;28.50;;;15.00;;
66581;SDS011;53438;48.898;2.308;2023-01-29T05:36:50;32.40;;;16.03;;
66581;SDS011;53438;48.898;2.308;2023-01-29T05:39:16;29.52;;;15.10;;
66581;SDS011;53438;48.898;2.308;2023-01-29T05:41:42;33.83;;;15.83;;
66581;SDS011;53438;48.898;2.308;2023-01-29T05:44:10;33.03;;;16.35;;
66581;SDS011;53438;48.898;2.308;2023-01-29T05:46:36;33.97;;;16.23;;
66581;SDS011;53438;48.898;2.308;2023-01-29T05:49:02;32.67;;;16.45;;
66581;SDS011;53438;48.898;2.308;2023-01-29T05:51:27;30.58;;;14.57;;
66581;SDS011;53438;48.898;2.308;2023-01-29T05:53:53;31.77;;;16.20;;
66581;SDS011;53438;48.898;2.308;2023-01-29T05:56:18;33.27;;;16.33;;
66581;SDS011;53438;48.898;2.308;2023-01-29T05:58:44;30.17;;;15.80;;
66581;SDS011;53438;48.898;2.308;2023-01-29T06:01:13;34.67;;;14.90;;
66581;SDS011;53438;48.898;2.308;2023-01-29T06:03:41;46.63;;;21.00;;
66581;SDS011;53438;48.898;2.308;2023-01-29T06:06:07;35.10;;;16.63;;
66581;SDS011;53438;48.898;2.308;2023-01-29T06:08:32;31.73;;;16.63;;
66581;SDS011;53438;48.898;2.308;2023-01-29T06:10:58;33.97;;;16.93;;
66581;SDS011;53438;48.898;2.308;2023-01-29T06:13:23;33.63;;;16.60;;
66581;SDS011;53438;48.898;2.308;2023-01-29T06:15:48;32.17;;;17.10;;
66581;SDS011;53438;48.898;2.308;2023-01-29T06:18:14;36.05;;;16.70;;
66581;SDS011;53438;48.898;2.308;2023-01-29T06:20:39;32.73;;;16.93;;
66581;SDS011;53438;48.898;2.308;2023-01-29T06:23:04;38.50;;;18.20;;
66581;SDS011;53438;48.898;2.308;2023-01-29T06:25:30;33.57;;;15.70;;
66581;SDS011;53438;48.898;2.308;2023-01-29T06:27:55;34.53;;;14.73;;
66581;SDS011;53438;48.898;2.308;2023-01-29T06:30:21;29.52;;;15.77;;
66581;SDS011;53438;48.898;2.308;2023-01-29T06:32:46;32.73;;;16.63;;
66581;SDS011;53438;48.898;2.308;2023-01-29T06:35:12;34.40;;;16.83;;
66581;SDS011;53438;48.898;2.308;2023-01-29T06:37:37;34.53;;;15.57;;
66581;SDS011;53438;48.898;2.308;2023-01-29T06:40:03;33.20;;;15.93;;
66581;SDS011;53438;48.898;2.308;2023-01-29T06:42:29;31.02;;;16.42;;
66581;SDS011;53438;48.898;2.308;2023-01-29T06:44:54;31.83;;;16.77;;
66581;SDS011;53438;48.898;2.308;2023-01-29T06:47:20;31.92;;;16.08;;
66581;SDS011;53438;48.898;2.308;2023-01-29T06:49:46;32.53;;;16.07;;
66581;SDS011;53438;48.898;2.308;2023-01-29T06:52:11;34.30;;;15.03;;
66581;SDS011;53438;48.898;2.308;2023-01-29T06:54:37;33.83;;;15.65;;
66581;SDS011;53438;48.898;2.308;2023-01-29T06:57:02;32.53;;;15.90;;
66581;SDS011;53438;48.898;2.308;2023-01-29T06:59:27;32.17;;;14.93;;
66581;SDS011;53438;48.898;2.308;2023-01-29T07:01:53;36.70;;;16.57;;
66581;SDS011;53438;48.898;2.308;2023-01-29T07:04:19;29.77;;;14.77;;
66581;SDS011;53438;48.898;2.308;2023-01-29T07:06:44;35.83;;;15.90;;
66581;SDS011;53438;48.898;2.308;2023-01-29T07:09:10;36.33;;;14.97;;
66581;SDS011;53438;48.898;2.308;2023-01-29T07:11:37;28.45;;;14.88;;
66581;SDS011;53438;48.898;2.308;2023-01-29T07:14:04;31.30;;;14.48;;
66581;SDS011;53438;48.898;2.308;2023-01-29T07:16:29;30.17;;;13.83;;
66581;SDS011;53438;48.898;2.308;2023-01-29T07:18:55;29.67;;;14.83;;
66581;SDS011;53438;48.898;2.308;2023-01-29T07:21:20;28.80;;;14.10;;
66581;SDS011;53438;48.898;2.308;2023-01-29T07:23:45;34.10;;;15.60;;
66581;SDS011;53438;48.898;2.308;2023-01-29T07:26:11;28.43;;;15.10;;
66581;SDS011;53438;48.898;2.308;2023-01-29T07:28:37;28.63;;;15.20;;
66581;SDS011;53438;48.898;2.308;2023-01-29T07:31:03;29.70;;;15.48;;
66581;SDS011;53438;48.898;2.308;2023-01-29T07:33:29;30.13;;;14.37;;
66581;SDS011;53438;48.898;2.308;2023-01-29T07:35:54;28.15;;;14.57;;
66581;SDS011;53438;48.898;2.308;2023-01-29T07:38:20;27.50;;;14.13;;
66581;SDS011;53438;48.898;2.308;2023-01-29T07:40:45;29.90;;;14.80;;
66581;SDS011;53438;48.898;2.308;2023-01-29T07:43:11;26.97;;;14.77;;
66581;SDS011;53438;48.898;2.308;2023-01-29T07:45:37;28.70;;;15.18;;
66581;SDS011;53438;48.898;2.308;2023-01-29T07:48:03;30.35;;;15.20;;
66581;SDS011;53438;48.898;2.308;2023-01-29T07:50:31;29.02;;;15.15;;
66581;SDS011;53438;48.898;2.308;2023-01-29T07:52:57;30.85;;;15.82;;
66581;SDS011;53438;48.898;2.308;2023-01-29T07:55:23;33.10;;;15.23;;
66581;SDS011;53438;48.898;2.308;2023-01-29T07:57:59;29.67;;;14.40;;
66581;SDS011;53438;48.898;2.308;2023-01-29T08:00:28;28.27;;;14.47;;
66581;SDS011;53438;48.898;2.308;2023-01-29T08:03:00;30.02;;;15.05;;
66581;SDS011;53438;48.898;2.308;2023-01-29T08:05:29;29.58;;;15.65;;
66581;SDS011;53438;48.898;2.308;2023-01-29T08:07:55;29.40;;;15.80;;
66581;SDS011;53438;48.898;2.308;2023-01-29T08:10:20;30.97;;;16.50;;
66581;SDS011;53438;48.898;2.308;2023-01-29T08:12:46;32.28;;;16.15;;
66581;SDS011;53438;48.898;2.308;2023-01-29T08:15:11;37.13;;;17.33;;
66581;SDS011;53438;48.898;2.308;2023-01-29T08:17:36;35.13;;;16.53;;
66581;SDS011;53438;48.898;2.308;2023-01-29T08:20:03;32.30;;;16.65;;
66581;SDS011;53438;48.898;2.308;2023-01-29T08:22:32;33.90;;;17.17;;
66581;SDS011;53438;48.898;2.308;2023-01-29T08:24:57;36.77;;;18.70;;
66581;SDS011;53438;48.898;2.308;2023-01-29T08:27:23;35.33;;;16.80;;
66581;SDS011;53438;48.898;2.308;2023-01-29T08:29:48;33.40;;;17.70;;
66581;SDS011;53438;48.898;2.308;2023-01-29T08:32:14;39.17;;;17.75;;
66581;SDS011;53438;48.898;2.308;2023-01-29T08:34:40;34.23;;;16.73;;
66581;SDS011;53438;48.898;2.308;2023-01-29T08:37:05;31.60;;;16.23;;
66581;SDS011;53438;48.898;2.308;2023-01-29T08:39:30;36.23;;;17.80;;
66581;SDS011;53438;48.898;2.308;2023-01-29T08:41:56;39.97;;;17.93;;
66581;SDS011;53438;48.898;2.308;2023-01-29T08:44:21;39.73;;;17.13;;
66581;SDS011;53438;48.898;2.308;2023-01-29T08:46:47;31.05;;;15.02;;
66581;SDS011;53438;48.898;2.308;2023-01-29T08:49:13;36.30;;;15.95;;
66581;SDS011;53438;48.898;2.308;2023-01-29T08:51:38;36.57;;;17.67;;
66581;SDS011;53438;48.898;2.308;2023-01-29T08:54:03;33.77;;;16.17;;
66581;SDS011;53438;48.898;2.308;2023-01-29T08:56:29;32.67;;;16.50;;
66581;SDS011;53438;48.898;2.308;2023-01-29T08:58:55;35.83;;;17.07;;
66581;SDS011;53438;48.898;2.308;2023-01-29T09:01:21;31.63;;;15.55;;
66581;SDS011;53438;48.898;2.308;2023-01-29T09:03:46;33.20;;;16.47;;
66581;SDS011;53438;48.898;2.308;2023-01-29T09:06:12;41.17;;;20.03;;
66581;SDS011;53438;48.898;2.308;2023-01-29T09:08:38;29.70;;;16.38;;
66581;SDS011;53438;48.898;2.308;2023-01-29T09:11:04;35.00;;;17.40;;
66581;SDS011;53438;48.898;2.308;2023-01-29T09:13:30;35.25;;;17.48;;
66581;SDS011;53438;48.898;2.308;2023-01-29T09:15:59;34.83;;;16.93;;
66581;SDS011;53438;48.898;2.308;2023-01-29T09:18:25;32.65;;;16.27;;
66581;SDS011;53438;48.898;2.308;2023-01-29T09:20:51;34.63;;;17.13;;
66581;SDS011;53438;48.898;2.308;2023-01-29T09:23:17;38.83;;;18.92;;
66581;SDS011;53438;48.898;2.308;2023-01-29T09:25:43;35.47;;;17.07;;
66581;SDS011;53438;48.898;2.308;2023-01-29T09:28:08;36.13;;;16.02;;
66581;SDS011;53438;48.898;2.308;2023-01-29T09:30:34;34.17;;;15.97;;
66581;SDS011;53438;48.898;2.308;2023-01-29T09:33:01;34.75;;;15.82;;
66581;SDS011;53438;48.898;2.308;2023-01-29T09:35:31;35.13;;;18.30;;
66581;SDS011;53438;48.898;2.308;2023-01-29T09:37:56;43.42;;;21.15;;
66581;SDS011;53438;48.898;2.308;2023-01-29T09:42:49;36.03;;;18.30;;
66581;SDS011;53438;48.898;2.308;2023-01-29T09:45:25;35.22;;;16.35;;
66581;SDS011;53438;48.898;2.308;2023-01-29T09:47:57;38.35;;;18.08;;
66581;SDS011;53438;48.898;2.308;2023-01-29T09:50:27;34.22;;;16.23;;
66581;SDS011;53438;48.898;2.308;2023-01-29T09:52:57;32.73;;;17.07;;
66581;SDS011;53438;48.898;2.308;2023-01-29T09:55:29;31.83;;;16.15;;
66581;SDS011;53438;48.898;2.308;2023-01-29T09:58:22;36.17;;;18.30;;
66581;SDS011;53438;48.898;2.308;2023-01-29T10:06:37;38.73;;;18.20;;
66581;SDS011;53438;48.898;2.308;2023-01-29T10:25:41;31.10;;;14.60;;
66581;SDS011;53438;48.898;2.308;2023-01-29T10:28:17;34.28;;;16.27;;
66581;SDS011;53438;48.898;2.308;2023-01-29T10:30:50;30.90;;;14.77;;
66581;SDS011;53438;48.898;2.308;2023-01-29T10:33:28;30.45;;;14.90;;
66581;SDS011;53438;48.898;2.308;2023-01-29T10:35:57;31.20;;;16.43;;
66581;SDS011;53438;48.898;2.308;2023-01-29T10:38:35;33.63;;;17.02;;
66581;SDS011;53438;48.898;2.308;2023-01-29T10:46:40;36.30;;;15.38;;
66581;SDS011;53438;48.898;2.308;2023-01-29T10:49:18;33.03;;;16.70;;
66581;SDS011;53438;48.898;2.308;2023-01-29T11:00:34;30.88;;;15.63;;
66581;SDS011;53438;48.898;2.308;2023-01-29T11:03:22;31.47;;;16.17;;
66581;SDS011;53438;48.898;2.308;2023-01-29T11:06:03;34.78;;;16.52;;
66581;SDS011;53438;48.898;2.308;2023-01-29T11:11:13;36.78;;;19.15;;
66581;SDS011;53438;48.898;2.308;2023-01-29T11:13:57;31.83;;;16.40;;
66581;SDS011;53438;48.898;2.308;2023-01-29T11:16:29;31.90;;;15.83;;
66581;SDS011;53438;48.898;2.308;2023-01-29T11:19:00;31.65;;;14.75;;
66581;SDS011;53438;48.898;2.308;2023-01-29T11:21:26;33.67;;;17.73;;
66581;SDS011;53438;48.898;2.308;2023-01-29T11:26:42;28.92;;;15.30;;
66581;SDS011;53438;48.898;2.308;2023-01-29T11:32:13;27.38;;;14.88;;
66581;SDS011;53438;48.898;2.308;2023-01-29T11:37:35;26.50;;;13.38;;
66581;SDS011;53438;48.898;2.308;2023-01-29T11:40:11;28.20;;;14.65;;
66581;SDS011;53438;48.898;2.308;2023-01-29T11:42:51;29.57;;;14.50;;
66581;SDS011;53438;48.898;2.308;2023-01-29T11:45:24;29.38;;;14.70;;
66581;SDS011;53438;48.898;2.308;2023-01-29T11:47:56;24.90;;;13.05;;
66581;SDS011;53438;48.898;2.308;2023-01-29T11:50:26;26.58;;;14.35;;
66581;SDS011;53438;48.898;2.308;2023-01-29T11:52:53;36.70;;;17.80;;
66581;SDS011;53438;48.898;2.308;2023-01-29T11:55:20;26.53;;;14.37;;
66581;SDS011;53438;48.898;2.308;2023-01-29T11:57:49;26.23;;;13.27;;
66581;SDS011;53438;48.898;2.308;2023-01-29T12:00:23;36.42;;;17.52;;
66581;SDS011;53438;48.898;2.308;2023-01-29T12:02:55;36.47;;;16.52;;
66581;SDS011;53438;48.898;2.308;2023-01-29T12:05:25;27.35;;;13.75;;
66581;SDS011;53438;48.898;2.308;2023-01-29T12:07:52;29.37;;;14.07;;
66581;SDS011;53438;48.898;2.308;2023-01-29T12:13:23;23.23;;;12.15;;
66581;SDS011;53438;48.898;2.308;2023-01-29T12:16:04;24.58;;;13.90;;
66581;SDS011;53438;48.898;2.308;2023-01-29T12:18:38;24.00;;;12.00;;
66581;SDS011;53438;48.898;2.308;2023-01-29T12:21:13;20.38;;;10.57;;
66581;SDS011;53438;48.898;2.308;2023-01-29T12:23:56;17.90;;;9.75;;
66581;SDS011;53438;48.898;2.308;2023-01-29T12:34:32;9.55;;;5.57;;
66581;SDS011;53438;48.898;2.308;2023-01-29T12:37:22;11.25;;;5.25;;
66581;SDS011;53438;48.898;2.308;2023-01-29T12:39:52;10.57;;;5.53;;
66581;SDS011;53438;48.898;2.308;2023-01-29T12:42:19;6.33;;;3.27;;
66581;SDS011;53438;48.898;2.308;2023-01-29T12:50:12;4.90;;;3.53;;
66581;SDS011;53438;48.898;2.308;2023-01-29T12:52:47;7.90;;;3.53;;
66581;SDS011;53438;48.898;2.308;2023-01-29T12:55:29;4.32;;;3.17;;
66581;SDS011;53438;48.898;2.308;2023-01-29T12:58:11;8.57;;;3.70;;
66581;SDS011;53438;48.898;2.308;2023-01-29T13:00:43;6.18;;;3.35;;
66581;SDS011;53438;48.898;2.308;2023-01-29T13:06:16;5.03;;;3.13;;
66581;SDS011;53438;48.898;2.308;2023-01-29T13:08:45;8.10;;;4.35;;
66581;SDS011;53438;48.898;2.308;2023-01-29T13:11:39;7.60;;;3.40;;
66581;SDS011;53438;48.898;2.308;2023-01-29T13:14:25;5.18;;;3.22;;
66581;SDS011;53438;48.898;2.308;2023-01-29T13:17:46;7.85;;;4.30;;
66581;SDS011;53438;48.898;2.308;2023-01-29T13:19:46;6.33;;;3.77;;
66581;SDS011;53438;48.898;2.308;2023-01-29T13:22:19;8.13;;;4.40;;
66581;SDS011;53438;48.898;2.308;2023-01-29T13:24:48;9.52;;;5.20;;
66581;SDS011;53438;48.898;2.308;2023-01-29T13:27:19;7.78;;;3.88;;
66581;SDS011;53438;48.898;2.308;2023-01-29T13:29:46;8.55;;;4.38;;
66581;SDS011;53438;48.898;2.308;2023-01-29T13:32:17;10.30;;;5.07;;
66581;SDS011;53438;48.898;2.308;2023-01-29T13:34:45;7.70;;;3.90;;
66581;SDS011;53438;48.898;2.308;2023-01-29T13:39:52;8.23;;;4.07;;
66581;SDS011;53438;48.898;2.308;2023-01-29T13:42:23;8.55;;;4.85;;
66581;SDS011;53438;48.898;2.308;2023-01-29T13:45:00;8.63;;;4.70;;
66581;SDS011;53438;48.898;2.308;2023-01-29T13:47:28;9.77;;;4.35;;
66581;SDS011;53438;48.898;2.308;2023-01-29T13:50:03;11.20;;;5.18;;
66581;SDS011;53438;48.898;2.308;2023-01-29T13:52:39;9.77;;;5.00;;
66581;SDS011;53438;48.898;2.308;2023-01-29T14:05:41;12.43;;;4.93;;
66581;SDS011;53438;48.898;2.308;2023-01-29T14:10:34;10.77;;;5.13;;
66581;SDS011;53438;48.898;2.308;2023-01-29T14:15:42;10.63;;;5.47;;
66581;SDS011;53438;48.898;2.308;2023-01-29T14:18:28;8.57;;;5.13;;
66581;SDS011;53438;48.898;2.308;2023-01-29T14:21:20;11.73;;;5.85;;
66581;SDS011;53438;48.898;2.308;2023-01-29T14:23:53;9.80;;;5.22;;
66581;SDS011;53438;48.898;2.308;2023-01-29T14:26:31;10.05;;;5.85;;
66581;SDS011;53438;48.898;2.308;2023-01-29T14:31:40;12.65;;;5.43;;
66581;SDS011;53438;48.898;2.308;2023-01-29T14:34:14;7.22;;;4.38;;
66581;SDS011;53438;48.898;2.308;2023-01-29T14:36:52;7.15;;;4.30;;
66581;SDS011;53438;48.898;2.308;2023-01-29T14:39:27;10.07;;;4.63;;
66581;SDS011;53438;48.898;2.308;2023-01-29T14:42:23;6.73;;;4.50;;
66581;SDS011;53438;48.898;2.308;2023-01-29T14:52:42;8.98;;;4.80;;
66581;SDS011;53438;48.898;2.308;2023-01-29T14:55:14;7.78;;;4.30;;
66581;SDS011;53438;48.898;2.308;2023-01-29T14:57:49;9.57;;;4.93;;
66581;SDS011;53438;48.898;2.308;2023-01-29T15:00:21;9.25;;;4.70;;
66581;SDS011;53438;48.898;2.308;2023-01-29T15:02:51;6.97;;;4.38;;
66581;SDS011;53438;48.898;2.308;2023-01-29T15:05:20;10.48;;;5.03;;
66581;SDS011;53438;48.898;2.308;2023-01-29T15:10:43;7.80;;;5.20;;
66581;SDS011;53438;48.898;2.308;2023-01-29T15:13:24;10.27;;;5.50;;
66581;SDS011;53438;48.898;2.308;2023-01-29T15:16:12;11.93;;;6.30;;
66581;SDS011;53438;48.898;2.308;2023-01-29T15:18:41;11.45;;;5.50;;
66581;SDS011;53438;48.898;2.308;2023-01-29T15:21:17;7.90;;;4.97;;
66581;SDS011;53438;48.898;2.308;2023-01-29T15:23:43;12.80;;;6.10;;
66581;SDS011;53438;48.898;2.308;2023-01-29T15:26:10;10.05;;;5.57;;
66581;SDS011;53438;48.898;2.308;2023-01-29T15:28:41;12.15;;;6.65;;
66581;SDS011;53438;48.898;2.308;2023-01-29T15:31:10;8.90;;;5.53;;
66581;SDS011;53438;48.898;2.308;2023-01-29T15:33:37;10.63;;;5.05;;
66581;SDS011;53438;48.898;2.308;2023-01-29T15:36:06;10.30;;;5.78;;
66581;SDS011;53438;48.898;2.308;2023-01-29T15:38:40;8.52;;;5.70;;
66581;SDS011;53438;48.898;2.308;2023-01-29T15:41:18;8.73;;;5.63;;
66581;SDS011;53438;48.898;2.308;2023-01-29T15:43:46;7.85;;;5.60;;
66581;SDS011;53438;48.898;2.308;2023-01-29T15:46:24;8.20;;;5.10;;
66581;SDS011;53438;48.898;2.308;2023-01-29T15:48:56;7.90;;;5.20;;
66581;SDS011;53438;48.898;2.308;2023-01-29T15:51:24;9.25;;;5.07;;
66581;SDS011;53438;48.898;2.308;2023-01-29T15:56:27;9.98;;;5.78;;
66581;SDS011;53438;48.898;2.308;2023-01-29T15:58:56;9.38;;;6.60;;
66581;SDS011;53438;48.898;2.308;2023-01-29T16:01:24;8.73;;;6.00;;
66581;SDS011;53438;48.898;2.308;2023-01-29T16:03:50;8.57;;;5.72;;
66581;SDS011;53438;48.898;2.308;2023-01-29T16:06:16;16.43;;;9.33;;
66581;SDS011;53438;48.898;2.308;2023-01-29T16:08:42;9.32;;;6.72;;
66581;SDS011;53438;48.898;2.308;2023-01-29T16:11:12;9.02;;;6.55;;
66581;SDS011;53438;48.898;2.308;2023-01-29T16:13:38;9.10;;;5.90;;
66581;SDS011;53438;48.898;2.308;2023-01-29T16:16:24;8.57;;;5.88;;
66581;SDS011;53438;48.898;2.308;2023-01-29T16:18:51;8.90;;;6.60;;
66581;SDS011;53438;48.898;2.308;2023-01-29T16:21:22;9.82;;;6.25;;
66581;SDS011;53438;48.898;2.308;2023-01-29T16:23:56;10.70;;;7.15;;
66581;SDS011;53438;48.898;2.308;2023-01-29T16:26:24;10.45;;;6.53;;
66581;SDS011;53438;48.898;2.308;2023-01-29T16:28:52;10.80;;;5.93;;
66581;SDS011;53438;48.898;2.308;2023-01-29T16:31:36;8.73;;;5.90;;
66581;SDS011;53438;48.898;2.308;2023-01-29T16:34:22;10.80;;;6.20;;
66581;SDS011;53438;48.898;2.308;2023-01-29T16:36:50;12.20;;;7.10;;
66581;SDS011;53438;48.898;2.308;2023-01-29T16:39:23;10.88;;;6.60;;
66581;SDS011;53438;48.898;2.308;2023-01-29T16:45:05;25.30;;;11.55;;
66581;SDS011;53438;48.898;2.308;2023-01-29T16:47:39;23.20;;;12.27;;
66581;SDS011;53438;48.898;2.308;2023-01-29T16:52:53;24.90;;;12.15;;
66581;SDS011;53438;48.898;2.308;2023-01-29T16:55:21;11.73;;;6.93;;
66581;SDS011;53438;48.898;2.308;2023-01-29T16:57:53;13.68;;;6.78;;
66581;SDS011;53438;48.898;2.308;2023-01-29T17:00:21;11.65;;;7.10;;
66581;SDS011;53438;48.898;2.308;2023-01-29T17:02:58;14.90;;;7.75;;
66581;SDS011;53438;48.898;2.308;2023-01-29T17:05:27;13.98;;;8.38;;
66581;SDS011;53438;48.898;2.308;2023-01-29T17:07:56;12.13;;;7.20;;
66581;SDS011;53438;48.898;2.308;2023-01-29T17:10:22;11.00;;;7.20;;
66581;SDS011;53438;48.898;2.308;2023-01-29T17:12:55;10.50;;;7.38;;
66581;SDS011;53438;48.898;2.308;2023-01-29T17:15:28;14.48;;;8.10;;
66581;SDS011;53438;48.898;2.308;2023-01-29T17:17:54;14.82;;;8.90;;
66581;SDS011;53438;48.898;2.308;2023-01-29T17:20:20;12.03;;;7.90;;
66581;SDS011;53438;48.898;2.308;2023-01-29T17:22:45;11.23;;;7.17;;
66581;SDS011;53438;48.898;2.308;2023-01-29T17:25:13;12.53;;;7.50;;
66581;SDS011;53438;48.898;2.308;2023-01-29T17:27:41;12.65;;;6.70;;
66581;SDS011;53438;48.898;2.308;2023-01-29T17:30:12;13.48;;;9.02;;
66581;SDS011;53438;48.898;2.308;2023-01-29T17:32:39;13.77;;;7.60;;
66581;SDS011;53438;48.898;2.308;2023-01-29T17:35:04;13.43;;;7.90;;
66581;SDS011;53438;48.898;2.308;2023-01-29T17:37:30;12.60;;;7.28;;
66581;SDS011;53438;48.898;2.308;2023-01-29T17:39:56;14.38;;;8.18;;
66581;SDS011;53438;48.898;2.308;2023-01-29T17:42:24;13.65;;;8.25;;
66581;SDS011;53438;48.898;2.308;2023-01-29T17:44:52;15.47;;;8.03;;
66581;SDS011;53438;48.898;2.308;2023-01-29T17:47:18;13.45;;;8.30;;
66581;SDS011;53438;48.898;2.308;2023-01-29T17:49:43;15.25;;;8.30;;
66581;SDS011;53438;48.898;2.308;2023-01-29T17:52:08;13.43;;;8.20;;
66581;SDS011;53438;48.898;2.308;2023-01-29T17:54:34;11.23;;;7.70;;
66581;SDS011;53438;48.898;2.308;2023-01-29T17:57:00;13.25;;;8.18;;
66581;SDS011;53438;48.898;2.308;2023-01-29T17:59:29;12.52;;;8.02;;
66581;SDS011;53438;48.898;2.308;2023-01-29T18:01:56;13.43;;;8.57;;
66581;SDS011;53438;48.898;2.308;2023-01-29T18:04:21;16.15;;;9.32;;
66581;SDS011;53438;48.898;2.308;2023-01-29T18:06:47;15.87;;;7.70;;
66581;SDS011;53438;48.898;2.308;2023-01-29T18:09:14;13.90;;;8.55;;
66581;SDS011;53438;48.898;2.308;2023-01-29T18:11:43;13.97;;;8.70;;
66581;SDS011;53438;48.898;2.308;2023-01-29T18:14:08;11.63;;;8.10;;
66581;SDS011;53438;48.898;2.308;2023-01-29T18:16:38;12.70;;;8.40;;
66581;SDS011;53438;48.898;2.308;2023-01-29T18:21:38;11.27;;;6.88;;
66581;SDS011;53438;48.898;2.308;2023-01-29T18:24:04;11.33;;;6.73;;
66581;SDS011;53438;48.898;2.308;2023-01-29T18:26:29;12.05;;;7.43;;
66581;SDS011;53438;48.898;2.308;2023-01-29T18:28:55;13.57;;;7.95;;
66581;SDS011;53438;48.898;2.308;2023-01-29T18:31:20;12.17;;;8.40;;
66581;SDS011;53438;48.898;2.308;2023-01-29T18:33:45;11.77;;;7.20;;
66581;SDS011;53438;48.898;2.308;2023-01-29T18:36:11;12.80;;;7.87;;
66581;SDS011;53438;48.898;2.308;2023-01-29T18:38:36;10.93;;;8.03;;
66581;SDS011;53438;48.898;2.308;2023-01-29T18:41:03;15.03;;;8.63;;
66581;SDS011;53438;48.898;2.308;2023-01-29T18:43:36;15.40;;;9.18;;
66581;SDS011;53438;48.898;2.308;2023-01-29T18:46:02;14.38;;;9.57;;
66581;SDS011;53438;48.898;2.308;2023-01-29T18:48:28;14.03;;;8.60;;
66581;SDS011;53438;48.898;2.308;2023-01-29T18:50:56;13.10;;;8.63;;
66581;SDS011;53438;48.898;2.308;2023-01-29T18:53:21;15.88;;;9.23;;
66581;SDS011;53438;48.898;2.308;2023-01-29T18:55:57;15.40;;;8.80;;
66581;SDS011;53438;48.898;2.308;2023-01-29T18:58:24;13.23;;;8.48;;
66581;SDS011;53438;48.898;2.308;2023-01-29T19:00:49;14.73;;;9.23;;
66581;SDS011;53438;48.898;2.308;2023-01-29T19:03:15;16.27;;;10.20;;
66581;SDS011;53438;48.898;2.308;2023-01-29T19:05:41;15.07;;;8.90;;
66581;SDS011;53438;48.898;2.308;2023-01-29T19:08:06;18.08;;;9.50;;
66581;SDS011;53438;48.898;2.308;2023-01-29T19:10:32;14.40;;;7.60;;
66581;SDS011;53438;48.898;2.308;2023-01-29T19:12:57;14.50;;;8.40;;
66581;SDS011;53438;48.898;2.308;2023-01-29T19:15:22;15.70;;;9.43;;
66581;SDS011;53438;48.898;2.308;2023-01-29T19:17:48;12.75;;;8.57;;
66581;SDS011;53438;48.898;2.308;2023-01-29T19:20:14;14.93;;;9.50;;
66581;SDS011;53438;48.898;2.308;2023-01-29T19:22:40;15.10;;;8.07;;
66581;SDS011;53438;48.898;2.308;2023-01-29T19:25:05;13.83;;;9.10;;
66581;SDS011;53438;48.898;2.308;2023-01-29T19:27:31;16.63;;;8.75;;
66581;SDS011;53438;48.898;2.308;2023-01-29T19:29:57;14.03;;;8.47;;
66581;SDS011;53438;48.898;2.308;2023-01-29T19:32:23;16.95;;;9.68;;
66581;SDS011;53438;48.898;2.308;2023-01-29T19:34:49;16.17;;;9.23;;
66581;SDS011;53438;48.898;2.308;2023-01-29T19:37:15;19.17;;;9.60;;
66581;SDS011;53438;48.898;2.308;2023-01-29T19:39:40;12.83;;;8.47;;
66581;SDS011;53438;48.898;2.308;2023-01-29T19:42:05;12.40;;;8.27;;
66581;SDS011;53438;48.898;2.308;2023-01-29T19:44:31;13.47;;;8.10;;
66581;SDS011;53438;48.898;2.308;2023-01-29T19:46:57;15.97;;;9.00;;
66581;SDS011;53438;48.898;2.308;2023-01-29T19:49:23;14.65;;;9.10;;
66581;SDS011;53438;48.898;2.308;2023-01-29T19:51:48;15.23;;;10.50;;